CMA CGM Homere — MQBL6 — position and weather

sailwx.info

Track history (hours):
 
Tides and Currents Weather Stations Pressure Air Temp Water Temp Dewpoint Dewpoint Depression Visibility Wind Speed Wind Dir Waves Ship Positions

CMA CGM Homere

Last reported at 2018-Apr-17 20:41 UTC. Time now 2018-Apr-25 18:33 UTC.
Position N 27°18' W 014°12'.

Length 170 m; draft 9 m.

Type: Ship (hazmat cat A). MMSI: 235052314.

Date/timePositionNaut miles runAvg speedWind from/ knotsBaromVisibWave heightAir tempDewpointWater temp
2018-Apr-17 20:41N 27°18' W 014°12'314.3
2018-Apr-17 20:27N 27°21' W 014°10'614.5
2018-Apr-17 20:00N 27°26' W 014°05'714.6
2018-Apr-17 19:30N 27°31' W 013°60'714.7
2018-Apr-17 19:00N 27°36' W 013°54'714.8
2018-Apr-17 18:30N 27°42' W 013°48'714.7
2018-Apr-17 18:00N 27°47' W 013°43'714.6
2018-Apr-17 17:30N 27°53' W 013°38'714.9
2018-Apr-17 17:00N 27°59' W 013°32'714.7
2018-Apr-17 16:30N 28°05' W 013°28'714.4
2018-Apr-17 15:59N 28°11' W 013°23'714.4
2018-Apr-17 15:30N 28°17' W 013°18'714.2
2018-Apr-17 15:00N 28°22' W 013°14'4014.0
2018-Apr-17 12:09N 28°56' W 012°49'214.2
2018-Apr-17 12:00N 28°58' W 012°47'714.2
2018-Apr-17 11:30N 29°03' W 012°43'54913.6
2018-Apr-15 19:08N 35°57' W 005°35'110.1
2018-Apr-15 19:00N 35°58' W 005°34'510.2
2018-Apr-15 18:29N 35°60' W 005°28'5 9.5
2018-Apr-15 17:56N 36°04' W 005°23'4 0.3
2018-Apr-15 03:35N 36°07' W 005°25'0 0.0
2018-Apr-15 03:05N 36°07' W 005°25'0 0.1
2018-Apr-15 02:59N 36°07' W 005°25'0 0.0
2018-Apr-15 02:11N 36°07' W 005°25'0 0.0
2018-Apr-14 15:49N 36°07' W 005°25'0 0.0
2018-Apr-13 03:41N 36°07' W 005°25'0 0.0
2018-Apr-13 02:35N 36°07' W 005°25'0 0.0
2018-Apr-13 02:23N 36°07' W 005°25'0 0.0
2018-Apr-12 23:29N 36°07' W 005°25'0 0.0
2018-Apr-12 05:53N 36°07' W 005°25'0 0.0
2018-Apr-12 05:29N 36°07' W 005°25'0 0.0
2018-Apr-12 04:59N 36°07' W 005°25'0 0.0
2018-Apr-12 04:17N 36°07' W 005°25'0 0.0
2018-Apr-12 03:59N 36°07' W 005°25'0 0.0
2018-Apr-12 03:11N 36°07' W 005°25'0 0.0
2018-Apr-12 02:41N 36°07' W 005°25'0 0.0
2018-Apr-12 02:29N 36°07' W 005°25'0 0.0
2018-Apr-12 01:53N 36°07' W 005°25'0 0.0
2018-Apr-12 01:29N 36°07' W 005°25'0 0.0
2018-Apr-12 00:59N 36°07' W 005°25'0 0.0
2018-Apr-12 00:23N 36°07' W 005°25'0 0.0
2018-Apr-11 23:41N 36°07' W 005°25'0 0.0
2018-Apr-11 23:23N 36°07' W 005°25'0 0.0
2018-Apr-11 22:53N 36°07' W 005°25'0 0.0
2018-Apr-11 22:29N 36°07' W 005°25'1 0.1
2018-Apr-11 12:41N 36°07' W 005°25'1 6.0
2018-Apr-11 12:30N 36°06' W 005°24'3 6.7
2018-Apr-11 12:00N 36°03' W 005°21'2 4.4
2018-Apr-11 11:31N 36°01' W 005°21'612.2
2018-Apr-11 11:00N 35°57' W 005°27'  
Track history (hours):
 
Tides and Currents Weather Stations Pressure Air Temp Water Temp Dewpoint Dewpoint Depression Visibility Wind Speed Wind Dir Waves Ship Positions

CMA CGM Homere

Last reported at 2018-Apr-17 20:41 UTC. Time now 2018-Apr-25 18:33 UTC.
Position N 27°18' W 014°12'.

Length 170 m; draft 9 m.

Type: Ship (hazmat cat A). MMSI: 235052314.

Date/timePositionNaut miles runAvg speedWind from/ knotsBaromVisibWave heightAir tempDewpointWater temp
2018-Apr-17 20:41N 27°18' W 014°12'314.3
2018-Apr-17 20:27N 27°21' W 014°10'614.5
2018-Apr-17 20:00N 27°26' W 014°05'714.6
2018-Apr-17 19:30N 27°31' W 013°60'714.7
2018-Apr-17 19:00N 27°36' W 013°54'714.8
2018-Apr-17 18:30N 27°42' W 013°48'714.7
2018-Apr-17 18:00N 27°47' W 013°43'714.6
2018-Apr-17 17:30N 27°53' W 013°38'714.9
2018-Apr-17 17:00N 27°59' W 013°32'714.7
2018-Apr-17 16:30N 28°05' W 013°28'714.4
2018-Apr-17 15:59N 28°11' W 013°23'714.4
2018-Apr-17 15:30N 28°17' W 013°18'714.2
2018-Apr-17 15:00N 28°22' W 013°14'4014.0
2018-Apr-17 12:09N 28°56' W 012°49'214.2
2018-Apr-17 12:00N 28°58' W 012°47'714.2
2018-Apr-17 11:30N 29°03' W 012°43'54913.6
2018-Apr-15 19:08N 35°57' W 005°35'110.1
2018-Apr-15 19:00N 35°58' W 005°34'510.2
2018-Apr-15 18:29N 35°60' W 005°28'5 9.5
2018-Apr-15 17:56N 36°04' W 005°23'4 0.3
2018-Apr-15 03:35N 36°07' W 005°25'0 0.0
2018-Apr-15 03:05N 36°07' W 005°25'0 0.1
2018-Apr-15 02:59N 36°07' W 005°25'0 0.0
2018-Apr-15 02:11N 36°07' W 005°25'0 0.0
2018-Apr-14 15:49N 36°07' W 005°25'0 0.0
2018-Apr-13 03:41N 36°07' W 005°25'0 0.0
2018-Apr-13 02:35N 36°07' W 005°25'0 0.0
2018-Apr-13 02:23N 36°07' W 005°25'0 0.0
2018-Apr-12 23:29N 36°07' W 005°25'0 0.0
2018-Apr-12 05:53N 36°07' W 005°25'0 0.0
2018-Apr-12 05:29N 36°07' W 005°25'0 0.0
2018-Apr-12 04:59N 36°07' W 005°25'0 0.0
2018-Apr-12 04:17N 36°07' W 005°25'0 0.0
2018-Apr-12 03:59N 36°07' W 005°25'0 0.0
2018-Apr-12 03:11N 36°07' W 005°25'0 0.0
2018-Apr-12 02:41N 36°07' W 005°25'0 0.0
2018-Apr-12 02:29N 36°07' W 005°25'0 0.0
2018-Apr-12 01:53N 36°07' W 005°25'0 0.0
2018-Apr-12 01:29N 36°07' W 005°25'0 0.0
2018-Apr-12 00:59N 36°07' W 005°25'0 0.0
2018-Apr-12 00:23N 36°07' W 005°25'0 0.0
2018-Apr-11 23:41N 36°07' W 005°25'0 0.0
2018-Apr-11 23:23N 36°07' W 005°25'0 0.0
2018-Apr-11 22:53N 36°07' W 005°25'0 0.0
2018-Apr-11 22:29N 36°07' W 005°25'1 0.1
2018-Apr-11 12:41N 36°07' W 005°25'1 6.0
2018-Apr-11 12:30N 36°06' W 005°24'3 6.7
2018-Apr-11 12:00N 36°03' W 005°21'2 4.4
2018-Apr-11 11:31N 36°01' W 005°21'612.2
2018-Apr-11 11:00N 35°57' W 005°27'  

Dump ship's entire track history